East Poestenkill, New York
Current Conditions -  °F | °C
As of 8:51 PM on Saturday 20 Dec 2014 (Local Time) from KALB Reporting Station
Overcast Overcast  
Wind Chill: 23°   Ceiling: 4100
Heat Index: 28°   Visibility: 10mi
Dew Point: 19°   Wind: 5mph
Humidity: 69%   Direction: 350°N
Pressure: 30.31"   Gusts: NA
Location:  42.6497°N, 73.5273°W
Report Text: KALB 210151Z 35004KT 10SM BKN041 OVC070 M02/M07 A3031 RMK AO2 SLP269 T10221072
Loading
Personal Weather Stations






























Interactive Weather Map New forecast layout! Learn more

10-Day Weather Forecast

Advertisements
Track Severe Weather on mobile